Jonesboro Municipal Airport
KJBR : rendu visible

Aérodrome :











RETROUVEZ-NOUS SUR...

 
LOGIN :

S'inscrire | Disclaimer

   EN    FR    IT 

 









Légende :    VFR   VFR Marginal   IFR   IFR Intensif   IFR Très Intensif
Visi : 
Plafond : 
>= 8 km
>= 3000ft
5 à 8 km
1000 à 3000 ft
1500m à 5 km
500 à 1000 ft
800 à 1500m
200 à 500 ft
< 800m
< 200 ft
Symboles :   Orages  Brouillard  Fortes neiges  Fortes précipitations  Vent > 20 kt







- Altitude de l'aérodrome : 262 ft
- Code IATA : JBR


KJBR - Jonesboro Municipal

DERNIER METAR :
  • 210553Z AUTO 00000KT 10SM CLR 10/08 A2995 RMK AO2 SLP140 T01000078 10211 20100 402220078 53006

METARs EXPIRÉS :
  • 210453Z AUTO 28003KT 10SM CLR 11/07 A2994 RMK AO2 SLP138 T01110072
  • 210353Z AUTO 26003KT 10SM CLR 12/06 A2993 RMK AO2 SLP136 T01170061

TAF KJBR
Valide du 21 à 06h jusqu'au 22 à 06h UTC


210520Z 2106/2206 25003KT P6SM SKC
FM211400 20008KT P6SM SKC
FM211800 20011G17KT P6SM SKC
FM220000 18007KT P6SM FEW250
FIR KZME / Amérique du Nord



MET'MAP, la Météo Aéronautique d'un coup d'oeil ! - Copyright ORBIFLY Décembre 2007 - Disclaimer

ORBIFLY MET'MAP TEAM :

Programmation & Développement : Alexandra Zaïnal
Conception & Développement : Baudouin d'Aumeries
Co-Programmation & Développement : Marc-Olivier Méhu
Soutien technique & logistique : Manuel Goepfert

Contact : metmap@orbifly.com




SOURCES & CREDITS :

   NOAA       Earth
Advisory